Time;durP1;ratioP1;P1;durP2;ratioP2;P2;SDS_P1;SDS_P2;PMS_P1;PMS_P2;Temp;Humidity;BMP_temperature;BMP_pressure;BME280_temperature;BME280_humidity;BME280_pressure;Samples;Min_cycle;Max_cycle;Signal;HPM_P1;HPM_P2
2021/12/14 00:01:24;;;;;;;6.33;5.73;;;10.50;99.90;;;;;;6146580;23;20906;-87
2021/12/14 00:03:56;;;;;;;8.37;4.73;;;10.60;99.90;;;;;;6143723;23;20532;-86
2021/12/14 00:06:24;;;;;;;11.40;5.77;;;10.60;99.90;;;;;;6167336;23;20991;-87
2021/12/14 00:08:56;;;;;;;4.70;4.30;;;10.60;99.90;;;;;;6143798;23;20251;-87
2021/12/14 00:11:35;;;;;;;7.03;5.17;;;10.60;99.90;;;;;;6141869;23;20199;-86
2021/12/14 00:15:02;;;;;;;6.77;4.40;;;10.60;99.90;;;;;;6146444;23;20192;-86
2021/12/14 00:16:57;;;;;;;6.33;4.17;;;10.60;99.90;;;;;;6145499;23;20199;-86
2021/12/14 00:19:24;;;;;;;4.13;3.80;;;10.60;99.90;;;;;;6145550;23;20171;-87
2021/12/14 00:21:53;;;;;;;3.80;3.00;;;10.60;99.90;;;;;;6146675;23;20183;-88
2021/12/14 00:24:26;;;;;;;8.33;4.90;;;10.60;99.90;;;;;;6169898;23;20203;-87
2021/12/14 00:27:04;;;;;;;4.53;3.67;;;10.60;99.90;;;;;;6146985;23;20273;-87
2021/12/14 00:29:46;;;;;;;10.47;6.10;;;10.70;99.90;;;;;;6145742;23;20199;-88
2021/12/14 00:32:19;;;;;;;8.10;5.33;;;10.70;99.90;;;;;;6146038;23;20195;-87
2021/12/14 00:34:47;;;;;;;8.47;5.77;;;10.60;99.90;;;;;;6145968;23;20202;-89
2021/12/14 00:37:23;;;;;;;6.90;4.60;;;10.60;99.90;;;;;;6148045;23;20392;-87
2021/12/14 00:39:50;;;;;;;7.57;4.13;;;10.60;99.90;;;;;;6175916;23;20253;-88
2021/12/14 00:42:17;;;;;;;4.53;3.97;;;10.60;99.90;;;;;;6151317;23;20555;-87
2021/12/14 00:44:43;;;;;;;7.67;4.10;;;10.60;99.90;;;;;;6164681;23;20306;-88
2021/12/14 00:47:10;;;;;;;4.53;4.07;;;10.70;99.90;;;;;;6189882;23;20215;-87
2021/12/14 00:49:36;;;;;;;8.30;4.33;;;10.60;99.90;;;;;;6146450;23;20160;-88
2021/12/14 00:52:03;;;;;;;8.83;5.07;;;10.60;99.90;;;;;;6172660;23;20611;-88
2021/12/14 00:54:29;;;;;;;8.83;4.93;;;10.60;99.90;;;;;;6169504;23;20242;-87
2021/12/14 00:56:55;;;;;;;8.17;6.10;;;10.60;99.90;;;;;;6166131;23;20947;-87
2021/12/14 00:59:21;;;;;;;7.23;4.53;;;10.60;99.90;;;;;;6162441;23;20195;-88
2021/12/14 01:01:54;;;;;;;8.00;4.73;;;10.60;99.90;;;;;;6170176;23;20196;-87
2021/12/14 01:04:27;;;;;;;5.27;4.47;;;10.60;99.90;;;;;;6146539;23;20231;-87
2021/12/14 01:06:54;;;;;;;9.07;4.27;;;10.50;99.90;;;;;;6145948;23;20183;-88
2021/12/14 01:09:25;;;;;;;8.60;4.53;;;10.50;99.90;;;;;;6143181;23;20207;-88
2021/12/14 01:11:53;;;;;;;4.20;3.80;;;10.50;99.90;;;;;;6142527;23;20195;-88
2021/12/14 01:14:31;;;;;;;10.53;4.87;;;10.50;99.90;;;;;;6167666;23;20199;-87
2021/12/14 01:17:11;;;;;;;6.40;5.77;;;10.50;99.90;;;;;;6152699;23;20198;-88
2021/12/14 01:19:43;;;;;;;9.10;5.57;;;10.50;99.90;;;;;;6195473;23;20150;-87
2021/12/14 01:22:19;;;;;;;5.00;4.30;;;10.50;99.90;;;;;;6147649;23;20152;-88
2021/12/14 01:25:06;;;;;;;5.50;4.47;;;10.50;99.90;;;;;;6147263;23;20179;-87
2021/12/14 01:27:34;;;;;;;7.60;4.53;;;10.40;99.90;;;;;;6145790;23;20579;-87
2021/12/14 01:30:07;;;;;;;8.37;4.23;;;10.40;99.90;;;;;;6145823;23;20202;-88
2021/12/14 01:32:36;;;;;;;8.73;5.73;;;10.40;99.90;;;;;;6145685;23;20206;-88
2021/12/14 01:35:10;;;;;;;8.90;4.87;;;10.40;99.90;;;;;;6147198;23;20218;-88
2021/12/14 01:37:42;;;;;;;9.33;3.57;;;10.40;99.90;;;;;;6170687;23;20182;-87
2021/12/14 01:40:18;;;;;;;6.97;4.93;;;10.40;99.90;;;;;;6123615;23;20156;-88
2021/12/14 01:42:44;;;;;;;7.37;6.23;;;10.40;99.90;;;;;;6200871;23;20182;-88
2021/12/14 01:45:13;;;;;;;8.33;6.67;;;10.40;99.90;;;;;;6175804;23;20194;-88
2021/12/14 01:47:49;;;;;;;7.30;5.73;;;10.40;99.90;;;;;;6176425;23;20199;-87
2021/12/14 01:50:25;;;;;;;9.63;6.17;;;10.40;99.90;;;;;;6176017;23;20248;-88
2021/12/14 01:52:51;;;;;;;7.07;5.17;;;10.40;99.90;;;;;;6176950;23;20210;-86
2021/12/14 01:55:24;;;;;;;6.07;3.73;;;10.40;99.90;;;;;;6202284;23;20321;-86
2021/12/14 01:57:53;;;;;;;6.37;4.80;;;10.40;99.90;;;;;;6148153;23;20270;-88
2021/12/14 02:00:25;;;;;;;5.73;5.27;;;10.40;99.90;;;;;;6150166;23;20820;-88
2021/12/14 02:02:52;;;;;;;5.73;5.23;;;10.40;99.90;;;;;;6147165;23;20214;-88
2021/12/14 02:05:31;;;;;;;5.40;3.83;;;10.40;99.90;;;;;;6147255;23;20202;-87
2021/12/14 02:08:00;;;;;;;3.53;2.73;;;10.40;99.90;;;;;;6146022;23;20524;-88
2021/12/14 02:10:35;;;;;;;8.50;6.03;;;10.40;99.90;;;;;;6146485;23;20155;-88
2021/12/14 02:13:03;;;;;;;4.70;4.00;;;10.40;99.90;;;;;;6146123;23;20170;-88
2021/12/14 02:15:36;;;;;;;10.27;5.37;;;10.40;99.90;;;;;;6145922;23;20221;-87
2021/12/14 02:18:15;;;;;;;8.13;4.37;;;10.40;99.90;;;;;;6146728;23;20281;-87
2021/12/14 02:21:00;;;;;;;9.50;5.30;;;10.40;99.90;;;;;;6148731;23;20195;-88
2021/12/14 02:23:26;;;;;;;8.93;6.23;;;10.40;99.90;;;;;;6148272;23;20203;-88
2021/12/14 02:25:55;;;;;;;8.70;5.37;;;10.40;99.90;;;;;;6148033;23;20249;-88
2021/12/14 02:28:22;;;;;;;3.60;3.37;;;10.40;99.90;;;;;;6148493;23;20187;-88
2021/12/14 02:30:54;;;;;;;11.53;6.73;;;10.30;99.90;;;;;;6148748;23;20164;-88
2021/12/14 02:33:29;;;;;;;6.77;5.00;;;10.40;99.90;;;;;;6148501;23;20199;-86
2021/12/14 02:35:56;;;;;;;6.53;4.93;;;10.30;99.90;;;;;;6149134;23;20210;-86
2021/12/14 02:38:23;;;;;;;8.93;5.43;;;10.30;99.90;;;;;;6147766;23;20203;-87
2021/12/14 02:41:01;;;;;;;8.60;5.97;;;10.30;99.90;;;;;;6149134;23;20266;-86
2021/12/14 02:43:52;;;;;;;5.47;4.97;;;10.20;99.90;;;;;;6148535;23;20152;-88
2021/12/14 02:46:25;;;;;;;6.33;4.33;;;10.20;99.90;;;;;;6148158;23;20186;-87
2021/12/14 02:48:55;;;;;;;9.47;6.67;;;10.30;99.90;;;;;;6169026;23;20184;-88
2021/12/14 02:51:29;;;;;;;7.13;5.67;;;10.30;99.90;;;;;;6145003;23;20203;-89
2021/12/14 02:54:02;;;;;;;8.43;5.77;;;10.30;99.90;;;;;;6144087;23;20242;-88
2021/12/14 02:56:33;;;;;;;8.37;5.67;;;10.30;99.90;;;;;;6145972;23;20680;-87
2021/12/14 02:59:26;;;;;;;5.53;4.60;;;10.30;99.90;;;;;;6146033;23;20195;-88
2021/12/14 03:01:56;;;;;;;9.17;7.47;;;10.30;99.90;;;;;;6139291;23;20195;-88
2021/12/14 03:04:21;;;;;;;19.90;3.80;;;10.30;99.90;;;;;;6147893;23;20243;-88
2021/12/14 03:06:53;;;;;;;7.33;4.37;;;10.30;99.90;;;;;;6179215;23;20705;-89
2021/12/14 03:12:07;;;;;;;13.33;5.60;;;10.40;99.90;;;;;;6148980;23;20203;-89
2021/12/14 03:14:34;;;;;;;8.30;5.63;;;10.40;99.90;;;;;;6149122;23;20214;-87
2021/12/14 03:17:00;;;;;;;15.83;7.37;;;10.30;99.90;;;;;;6147583;23;20211;-87
2021/12/14 03:19:26;;;;;;;8.10;4.93;;;10.30;99.90;;;;;;6147416;23;20205;-88
2021/12/14 03:21:52;;;;;;;6.07;4.13;;;10.30;99.90;;;;;;6148762;23;20160;-88
2021/12/14 03:24:19;;;;;;;8.40;5.50;;;10.30;99.90;;;;;;6149148;23;20639;-88
2021/12/14 03:26:51;;;;;;;6.13;4.60;;;10.20;99.90;;;;;;6148937;23;20315;-88
2021/12/14 03:29:21;;;;;;;8.33;7.00;;;10.20;99.90;;;;;;6148327;23;20210;-88
2021/12/14 03:31:50;;;;;;;13.20;5.87;;;10.20;99.90;;;;;;6147875;23;20198;-88
2021/12/14 03:34:17;;;;;;;7.90;6.10;;;10.20;99.90;;;;;;6148479;23;20159;-89
2021/12/14 03:36:51;;;;;;;11.83;6.57;;;10.20;99.90;;;;;;6177328;23;20277;-89
2021/12/14 03:39:34;;;;;;;7.87;5.67;;;10.20;99.90;;;;;;6154600;23;20289;-87
2021/12/14 03:42:06;;;;;;;9.90;7.70;;;10.20;99.90;;;;;;6147522;23;20241;-88
2021/12/14 03:44:37;;;;;;;8.27;5.83;;;10.20;99.90;;;;;;6147640;23;20191;-89
2021/12/14 03:47:07;;;;;;;13.40;5.57;;;10.20;99.90;;;;;;6172635;23;20233;-89
2021/12/14 03:49:41;;;;;;;7.73;4.20;;;10.20;99.90;;;;;;6172674;23;20204;-87
2021/12/14 03:52:13;;;;;;;11.57;8.20;;;10.20;99.90;;;;;;6148160;23;20175;-87
2021/12/14 03:54:40;;;;;;;10.50;5.77;;;10.20;99.90;;;;;;6148578;23;20226;-87
2021/12/14 03:57:06;;;;;;;21.37;6.67;;;10.30;99.90;;;;;;6170891;23;20202;-86
2021/12/14 03:59:33;;;;;;;16.27;6.73;;;10.20;99.90;;;;;;6152832;23;20587;-85
2021/12/14 04:02:02;;;;;;;5.13;3.97;;;10.30;99.90;;;;;;6178692;23;20644;-88
2021/12/14 04:04:36;;;;;;;6.17;4.40;;;10.30;99.90;;;;;;6178880;23;20216;-89
2021/12/14 04:07:05;;;;;;;10.77;5.83;;;10.30;99.90;;;;;;6153149;23;20179;-89
2021/12/14 04:09:34;;;;;;;16.37;4.10;;;10.30;99.90;;;;;;6178137;23;20194;-89
2021/12/14 04:12:00;;;;;;;8.57;6.80;;;10.30;99.90;;;;;;6151648;23;20222;-87
2021/12/14 04:14:29;;;;;;;9.10;5.17;;;10.30;99.90;;;;;;6152276;23;20199;-89
2021/12/14 04:16:56;;;;;;;11.17;6.13;;;10.30;99.90;;;;;;6150871;23;20260;-86
2021/12/14 04:19:24;;;;;;;6.37;3.97;;;10.30;99.90;;;;;;6177445;23;20167;-88
2021/12/14 04:21:52;;;;;;;13.33;4.27;;;10.30;99.90;;;;;;6177700;23;20166;-88
2021/12/14 04:24:23;;;;;;;8.77;6.17;;;10.30;99.90;;;;;;6177741;23;20199;-88
2021/12/14 04:26:50;;;;;;;8.30;5.37;;;10.30;99.90;;;;;;6151874;23;20206;-87
2021/12/14 04:29:17;;;;;;;10.13;3.97;;;10.40;99.90;;;;;;6152260;23;20257;-87
2021/12/14 04:31:44;;;;;;;7.43;4.83;;;10.40;99.90;;;;;;6152328;23;20265;-87
2021/12/14 04:34:10;;;;;;;11.07;7.93;;;10.40;99.90;;;;;;6178744;23;20221;-87
2021/12/14 04:36:36;;;;;;;9.23;5.97;;;10.40;99.90;;;;;;6152324;23;20231;-87
2021/12/14 04:53:23;;;;;;;7.27;4.50;;;10.30;99.90;;;;;;6176657;23;20206;-88
2021/12/14 04:55:52;;;;;;;9.00;4.10;;;10.30;99.90;;;;;;6176873;23;20658;-88
2021/12/14 04:58:41;;;;;;;8.43;5.50;;;10.30;99.90;;;;;;6175967;23;20246;-87
2021/12/14 05:01:09;;;;;;;7.60;4.90;;;10.30;99.90;;;;;;6175553;23;20158;-88
2021/12/14 05:03:48;;;;;;;8.83;5.60;;;10.40;99.90;;;;;;6174059;23;20289;-88
2021/12/14 05:06:20;;;;;;;20.77;6.63;;;10.40;99.90;;;;;;6175873;23;20213;-87
2021/12/14 05:12:15;;;;;;;6.13;3.67;;;10.40;99.90;;;;;;6177074;23;20202;-88
2021/12/14 05:14:43;;;;;;;6.90;4.90;;;10.40;99.90;;;;;;6201326;23;20228;-88
2021/12/14 05:17:14;;;;;;;5.50;5.00;;;10.40;99.90;;;;;;6200601;23;21021;-87
2021/12/14 05:19:42;;;;;;;12.93;4.20;;;10.40;99.90;;;;;;6175374;23;20232;-87
2021/12/14 05:22:31;;;;;;;8.47;5.10;;;10.40;99.90;;;;;;6174008;23;20159;-88
2021/12/14 05:25:03;;;;;;;6.60;4.97;;;10.40;99.90;;;;;;6174123;23;20175;-89
2021/12/14 05:27:40;;;;;;;5.07;4.13;;;10.40;99.90;;;;;;6175689;23;20261;-87
2021/12/14 05:30:11;;;;;;;10.50;6.47;;;10.40;99.90;;;;;;6177840;23;20617;-88
2021/12/14 05:32:39;;;;;;;8.30;5.77;;;10.40;99.90;;;;;;6177248;23;20242;-88
2021/12/14 05:35:09;;;;;;;7.70;4.50;;;10.40;99.90;;;;;;6176311;23;20313;-86
2021/12/14 05:37:43;;;;;;;10.77;6.93;;;10.40;99.90;;;;;;6176348;23;20194;-88
2021/12/14 05:40:19;;;;;;;12.07;8.67;;;10.40;99.90;;;;;;6176702;23;20150;-86
2021/12/14 05:45:29;;;;;;;6.13;4.10;;;10.40;99.90;;;;;;6147850;23;20206;-87
2021/12/14 05:47:57;;;;;;;7.83;4.43;;;10.40;99.90;;;;;;6171140;23;20202;-86
2021/12/14 05:50:35;;;;;;;14.40;7.67;;;10.40;99.90;;;;;;6146540;23;20195;-87
2021/12/14 05:53:01;;;;;;;15.83;4.87;;;10.40;99.90;;;;;;6170697;23;20219;-87
2021/12/14 05:55:33;;;;;;;7.40;5.30;;;10.40;99.90;;;;;;6171907;23;20530;-86
2021/12/14 05:58:03;;;;;;;5.70;4.20;;;10.40;99.90;;;;;;6145884;23;20162;-86
2021/12/14 06:00:31;;;;;;;12.37;6.00;;;10.40;99.90;;;;;;6147272;23;20274;-85
2021/12/14 06:02:57;;;;;;;5.47;4.60;;;10.40;99.90;;;;;;6145861;23;20250;-85
2021/12/14 06:05:27;;;;;;;11.20;5.27;;;10.50;99.90;;;;;;6146294;23;20261;-87
2021/12/14 06:07:53;;;;;;;10.90;6.33;;;10.50;99.90;;;;;;6146788;23;20206;-86
2021/12/14 06:10:23;;;;;;;6.67;4.80;;;10.50;99.90;;;;;;6144962;23;20168;-86
2021/12/14 06:12:49;;;;;;;5.97;4.87;;;10.50;99.90;;;;;;6144414;23;20163;-86
2021/12/14 06:15:25;;;;;;;8.27;5.03;;;10.50;99.90;;;;;;6143093;23;20301;-86
2021/12/14 06:17:51;;;;;;;9.53;6.53;;;10.50;99.90;;;;;;6142602;23;20198;-86
2021/12/14 06:20:26;;;;;;;7.13;4.13;;;10.50;99.90;;;;;;6166840;23;20195;-87
2021/12/14 06:22:53;;;;;;;12.97;4.93;;;10.50;99.90;;;;;;6142801;23;20198;-85
2021/12/14 06:25:23;;;;;;;9.37;4.30;;;10.60;99.90;;;;;;6142485;23;20159;-86
2021/12/14 06:27:50;;;;;;;5.43;3.97;;;10.60;99.90;;;;;;6175075;23;20187;-87
2021/12/14 06:30:24;;;;;;;4.80;3.97;;;10.60;99.90;;;;;;6176264;23;20203;-87
2021/12/14 06:32:59;;;;;;;10.07;6.07;;;10.70;99.90;;;;;;6175060;23;20213;-87
2021/12/14 06:35:32;;;;;;;5.23;4.00;;;10.70;99.90;;;;;;6175987;23;20197;-88
2021/12/14 06:38:21;;;;;;;4.90;3.77;;;10.80;99.90;;;;;;6176708;23;20269;-87
2021/12/14 06:41:13;;;;;;;6.87;4.80;;;10.80;99.90;;;;;;6176649;23;20191;-86
2021/12/14 06:43:49;;;;;;;5.03;3.70;;;10.80;99.90;;;;;;6177763;23;20952;-88
2021/12/14 06:46:19;;;;;;;6.47;3.17;;;10.80;99.90;;;;;;6178550;23;20235;-87
2021/12/14 06:48:52;;;;;;;6.73;4.77;;;10.80;99.90;;;;;;6178617;23;20179;-88
2021/12/14 06:51:21;;;;;;;7.10;4.87;;;10.80;99.90;;;;;;6179321;23;20256;-89
2021/12/14 06:53:50;;;;;;;9.87;4.13;;;10.80;99.90;;;;;;6177979;23;20540;-88
2021/12/14 06:56:19;;;;;;;6.70;4.67;;;10.80;99.90;;;;;;6176767;23;20207;-88
2021/12/14 06:58:57;;;;;;;9.90;5.53;;;10.80;99.90;;;;;;6175550;23;20199;-87
2021/12/14 07:01:28;;;;;;;9.03;6.20;;;10.80;99.90;;;;;;6177372;23;20169;-88
2021/12/14 07:04:04;;;;;;;8.13;5.20;;;10.80;99.90;;;;;;6176615;23;20147;-87
2021/12/14 07:06:34;;;;;;;5.57;4.33;;;10.80;99.90;;;;;;6177642;23;20217;-89
2021/12/14 07:09:11;;;;;;;7.37;5.10;;;10.80;99.90;;;;;;6175736;23;20226;-88
2021/12/14 07:11:40;;;;;;;5.40;3.23;;;10.80;99.90;;;;;;6177112;23;20245;-87
2021/12/14 07:14:24;;;;;;;6.77;4.43;;;10.80;99.90;;;;;;6178358;23;20218;-85
2021/12/14 07:16:50;;;;;;;6.73;6.03;;;10.90;99.90;;;;;;6177907;23;20297;-85
2021/12/14 07:19:16;;;;;;;7.23;4.97;;;10.80;99.90;;;;;;6179020;23;20535;-83
2021/12/14 07:21:48;;;;;;;10.47;6.53;;;10.90;99.90;;;;;;6178106;23;20198;-85
2021/12/14 07:24:23;;;;;;;8.47;4.83;;;10.80;99.90;;;;;;6177175;23;20198;-85
2021/12/14 07:27:23;;;;;;;8.23;5.07;;;10.90;99.90;;;;;;6177818;23;20202;-86
2021/12/14 07:29:49;;;;;;;7.67;6.40;;;10.80;99.90;;;;;;6177193;23;20974;-86
2021/12/14 07:32:40;;;;;;;5.60;5.03;;;10.90;99.90;;;;;;6176573;23;20198;-85
2021/12/14 07:35:25;;;;;;;18.50;8.23;;;10.90;99.90;;;;;;6176912;23;20261;-86
2021/12/14 07:37:51;;;;;;;5.60;3.83;;;10.80;99.90;;;;;;6172416;23;20195;-86
2021/12/14 07:40:17;;;;;;;8.57;4.10;;;10.90;99.90;;;;;;6177327;23;20250;-85
2021/12/14 07:42:44;;;;;;;7.70;3.83;;;10.90;99.90;;;;;;6178940;23;20193;-87
2021/12/14 07:45:11;;;;;;;7.73;5.07;;;10.90;99.90;;;;;;6203347;23;20209;-87
2021/12/14 07:47:50;;;;;;;22.23;4.90;;;10.90;99.90;;;;;;6177004;23;20260;-85
2021/12/14 07:50:16;;;;;;;19.17;5.10;;;10.90;99.90;;;;;;6174952;23;20194;-85
2021/12/14 07:52:42;;;;;;;9.63;5.77;;;10.90;99.90;;;;;;6174640;23;20217;-85
2021/12/14 07:55:19;;;;;;;7.27;4.70;;;10.90;99.90;;;;;;6175679;23;20335;-86
2021/12/14 07:57:47;;;;;;;16.33;5.23;;;11.00;99.90;;;;;;6176781;23;20175;-86
2021/12/14 08:00:25;;;;;;;16.63;7.03;;;10.90;99.90;;;;;;6199995;23;20197;-90
2021/12/14 08:02:56;;;;;;;6.80;4.73;;;11.00;99.90;;;;;;6171193;23;21038;-85
2021/12/14 08:05:31;;;;;;;6.27;4.30;;;11.00;99.90;;;;;;6176462;23;20206;-86
2021/12/14 08:08:29;;;;;;;13.10;4.73;;;11.00;99.90;;;;;;6176523;23;20201;-84
2021/12/14 08:11:26;;;;;;;10.77;5.10;;;11.00;99.90;;;;;;6176274;23;20186;-85
2021/12/14 08:13:53;;;;;;;22.97;5.83;;;11.00;99.90;;;;;;6177077;23;20190;-86
2021/12/14 08:16:19;;;;;;;7.77;4.63;;;11.10;99.90;;;;;;6200382;23;20245;-85
2021/12/14 08:18:46;;;;;;;9.10;4.77;;;11.10;99.90;;;;;;6177184;23;20215;-89
2021/12/14 08:21:19;;;;;;;26.30;4.43;;;11.00;99.90;;;;;;6175966;23;20201;-85
2021/12/14 08:23:58;;;;;;;7.30;4.40;;;11.10;99.90;;;;;;6173756;23;20206;-84
2021/12/14 08:26:26;;;;;;;8.93;4.87;;;11.10;99.90;;;;;;6160773;23;20260;-84
2021/12/14 08:29:02;;;;;;;12.90;6.00;;;11.10;99.90;;;;;;6148875;23;20232;-84
2021/12/14 08:31:35;;;;;;;6.83;4.43;;;11.10;99.90;;;;;;6145461;23;20587;-85
2021/12/14 08:34:05;;;;;;;11.17;6.30;;;11.10;99.90;;;;;;6171545;23;20171;-84
2021/12/14 08:36:44;;;;;;;9.97;4.20;;;11.10;99.90;;;;;;6168882;23;20203;-83
2021/12/14 08:39:26;;;;;;;10.47;5.57;;;11.00;99.90;;;;;;6145391;23;20288;-84
2021/12/14 08:42:20;;;;;;;9.40;6.37;;;11.00;99.90;;;;;;6144383;23;20643;-84
2021/12/14 08:44:55;;;;;;;7.37;6.10;;;11.00;99.90;;;;;;6147147;23;20330;-83
2021/12/14 08:47:32;;;;;;;8.47;5.93;;;10.90;99.90;;;;;;6149135;23;20213;-83
2021/12/14 08:50:04;;;;;;;20.73;6.37;;;10.90;99.90;;;;;;6170787;23;20199;-84
2021/12/14 08:52:30;;;;;;;11.00;6.03;;;10.90;99.90;;;;;;6170067;23;20203;-83
2021/12/14 08:54:58;;;;;;;13.10;5.83;;;10.80;99.90;;;;;;6173933;23;20607;-83
2021/12/14 08:57:26;;;;;;;12.07;4.33;;;10.80;99.90;;;;;;6126928;23;20333;-83
2021/12/14 08:59:57;;;;;;;11.27;6.03;;;10.90;99.90;;;;;;6149842;23;20242;-84
2021/12/14 09:02:25;;;;;;;12.37;5.67;;;10.90;99.90;;;;;;6147030;23;20205;-84
2021/12/14 09:05:03;;;;;;;9.03;4.00;;;10.90;99.90;;;;;;6146473;23;20192;-83
2021/12/14 09:07:31;;;;;;;7.83;5.27;;;10.90;99.90;;;;;;6144805;23;20199;-84
2021/12/14 09:09:59;;;;;;;5.90;3.77;;;10.90;99.90;;;;;;6146774;23;20242;-83
2021/12/14 09:12:34;;;;;;;8.23;5.87;;;10.90;99.90;;;;;;6142014;23;20202;-84
2021/12/14 09:15:10;;;;;;;5.13;4.60;;;10.90;99.90;;;;;;6144084;23;20199;-82
2021/12/14 09:17:36;;;;;;;6.67;5.13;;;10.90;99.90;;;;;;6144574;23;21007;-85
2021/12/14 09:20:18;;;;;;;8.90;4.00;;;10.90;99.90;;;;;;6154649;23;20533;-86
2021/12/14 09:22:50;;;;;;;8.83;4.17;;;10.90;99.90;;;;;;6175278;23;20240;-83
2021/12/14 09:25:21;;;;;;;6.93;4.63;;;10.90;99.90;;;;;;6176134;23;20143;-81
2021/12/14 09:27:47;;;;;;;4.33;3.17;;;10.90;99.90;;;;;;6176496;23;20217;-84
2021/12/14 09:30:16;;;;;;;5.33;3.60;;;11.00;99.90;;;;;;6171585;23;20195;-85
2021/12/14 09:32:42;;;;;;;8.43;5.33;;;11.00;99.90;;;;;;6173344;23;20229;-82
2021/12/14 09:35:14;;;;;;;6.80;4.53;;;11.00;99.90;;;;;;6196956;23;20272;-82
2021/12/14 09:37:41;;;;;;;6.87;4.53;;;11.00;99.90;;;;;;6172888;23;20194;-84
2021/12/14 09:40:14;;;;;;;6.20;3.37;;;11.10;99.90;;;;;;6199710;23;20167;-82
2021/12/14 09:42:41;;;;;;;4.50;3.27;;;11.10;99.90;;;;;;6174882;23;20206;-82
2021/12/14 09:45:12;;;;;;;8.30;3.63;;;11.10;99.90;;;;;;6174753;23;20622;-83
2021/12/14 09:47:38;;;;;;;9.60;5.57;;;11.10;99.90;;;;;;6173524;23;20206;-83
2021/12/14 09:50:12;;;;;;;6.93;3.97;;;11.20;99.90;;;;;;6175752;23;20252;-82
2021/12/14 09:52:40;;;;;;;6.60;5.27;;;11.20;99.90;;;;;;6175409;23;20411;-83
2021/12/14 09:55:11;;;;;;;10.80;4.60;;;11.20;99.90;;;;;;6200113;23;20222;-82
2021/12/14 09:57:45;;;;;;;7.20;5.07;;;11.20;99.90;;;;;;6174593;23;20209;-82
2021/12/14 10:00:35;;;;;;;9.30;4.43;;;11.20;99.90;;;;;;6175535;23;20199;-84
2021/12/14 10:03:02;;;;;;;9.47;5.40;;;11.20;99.90;;;;;;6174345;23;20194;-83
2021/12/14 10:05:35;;;;;;;3.47;3.17;;;11.30;99.90;;;;;;6198575;23;20425;-83
2021/12/14 10:08:14;;;;;;;10.97;5.23;;;11.20;99.90;;;;;;6175191;23;20300;-86
2021/12/14 10:10:44;;;;;;;7.67;4.97;;;11.20;99.90;;;;;;6175316;23;20210;-84
2021/12/14 10:13:10;;;;;;;6.27;4.03;;;11.30;99.90;;;;;;6175688;23;20155;-83
2021/12/14 10:15:46;;;;;;;5.80;4.23;;;11.30;99.90;;;;;;6200645;23;20198;-83
2021/12/14 10:18:18;;;;;;;4.57;3.67;;;11.30;99.90;;;;;;6175929;23;20205;-84
2021/12/14 10:20:56;;;;;;;7.70;3.67;;;11.30;99.90;;;;;;6180272;23;20194;-84
2021/12/14 10:23:24;;;;;;;2.50;1.63;;;11.40;99.90;;;;;;6179700;23;20194;-84
2021/12/14 10:25:52;;;;;;;10.47;3.83;;;11.40;99.90;;;;;;6178376;23;20713;-85
2021/12/14 10:28:19;;;;;;;5.73;4.20;;;11.40;99.90;;;;;;6205609;23;20154;-84
2021/12/14 10:30:53;;;;;;;4.53;2.37;;;11.50;99.90;;;;;;6152342;23;20184;-85
2021/12/14 10:33:19;;;;;;;5.40;3.27;;;11.50;99.90;;;;;;6151613;23;20191;-85
2021/12/14 10:35:50;;;;;;;4.80;3.27;;;11.50;99.90;;;;;;6178338;23;20199;-84
2021/12/14 10:38:28;;;;;;;4.10;3.37;;;11.50;99.90;;;;;;6181817;23;20195;-84
2021/12/14 10:44:01;;;;;;;4.73;2.27;;;11.60;99.90;;;;;;6149291;23;20202;-82
2021/12/14 10:46:37;;;;;;;3.77;2.93;;;11.60;99.90;;;;;;6147952;23;20225;-84
2021/12/14 10:49:04;;;;;;;4.40;3.10;;;11.50;99.90;;;;;;6170846;23;20158;-83
2021/12/14 10:51:37;;;;;;;8.80;5.70;;;11.50;99.90;;;;;;6145908;23;20202;-84
2021/12/14 10:54:07;;;;;;;6.47;4.93;;;11.50;99.90;;;;;;6169797;23;20219;-83
2021/12/14 10:57:03;;;;;;;3.07;2.23;;;11.60;99.90;;;;;;6162599;23;20649;-84
2021/12/14 10:59:34;;;;;;;5.20;3.73;;;11.50;99.90;;;;;;6164303;23;20219;-83
2021/12/14 11:02:00;;;;;;;5.97;3.00;;;11.60;99.90;;;;;;6148859;23;20285;-83
2021/12/14 11:04:37;;;;;;;6.17;3.17;;;11.60;99.90;;;;;;6150684;23;20201;-84
2021/12/14 11:07:27;;;;;;;4.47;2.47;;;11.70;99.90;;;;;;6149085;23;20191;-85
2021/12/14 11:09:55;;;;;;;6.13;3.27;;;11.70;99.90;;;;;;6154489;23;20553;-84
2021/12/14 11:12:23;;;;;;;3.17;2.87;;;11.70;99.90;;;;;;6172945;23;20179;-85
2021/12/14 11:14:53;;;;;;;8.33;2.60;;;11.70;99.90;;;;;;6167530;23;20253;-87
2021/12/14 11:20:25;;;;;;;2.43;1.90;;;11.80;99.90;;;;;;6160445;23;20838;-88
2021/12/14 11:22:54;;;;;;;4.07;2.00;;;11.80;99.90;;;;;;6161841;23;20179;-90
2021/12/14 11:25:23;;;;;;;2.43;1.77;;;11.80;99.90;;;;;;6161140;23;20155;-87
2021/12/14 11:28:02;;;;;;;6.47;2.97;;;11.80;99.90;;;;;;6158903;23;20253;-86
2021/12/14 11:30:39;;;;;;;5.50;3.40;;;11.80;99.90;;;;;;6176292;23;20262;-90
2021/12/14 11:33:17;;;;;;;5.87;3.00;;;11.80;99.90;;;;;;6148008;23;20205;-87
2021/12/14 11:35:59;;;;;;;4.63;2.67;;;11.90;99.90;;;;;;6148048;23;20198;-89
2021/12/14 11:38:34;;;;;;;2.23;1.30;;;11.80;99.90;;;;;;6148552;23;20202;-86
2021/12/14 11:41:19;;;;;;;1.97;1.63;;;11.80;99.90;;;;;;6145753;23;20227;-90
2021/12/14 11:43:51;;;;;;;4.80;2.70;;;11.70;99.90;;;;;;6148213;23;20194;-88
2021/12/14 11:46:19;;;;;;;7.90;2.23;;;11.80;99.90;;;;;;6146570;23;20191;-84
2021/12/14 11:48:46;;;;;;;3.23;1.97;;;11.80;99.90;;;;;;6145623;23;20183;-84
2021/12/14 11:51:11;;;;;;;4.03;2.73;;;11.80;99.90;;;;;;6144538;23;20201;-85
2021/12/14 11:53:38;;;;;;;4.83;3.10;;;11.80;99.90;;;;;;6168940;23;20215;-85
2021/12/14 11:56:12;;;;;;;5.40;2.33;;;12.00;99.90;;;;;;6168510;23;20318;-84
2021/12/14 11:58:54;;;;;;;1.93;1.80;;;11.90;99.90;;;;;;6149595;23;20258;-82
2021/12/14 12:01:29;;;;;;;5.07;3.57;;;11.90;99.90;;;;;;6175204;23;20182;-84
2021/12/14 12:04:14;;;;;;;4.83;2.03;;;11.90;99.90;;;;;;6146481;23;20155;-83
2021/12/14 12:09:41;;;;;;;3.30;2.83;;;11.80;99.90;;;;;;6146653;23;20218;-82
2021/12/14 12:12:16;;;;;;;7.90;3.77;;;11.90;99.90;;;;;;6148146;23;20203;-82
2021/12/14 12:14:54;;;;;;;4.80;2.93;;;12.00;99.90;;;;;;6148627;23;20198;-85
2021/12/14 12:17:19;;;;;;;3.63;2.83;;;12.00;99.90;;;;;;6148264;23;20214;-86
2021/12/14 12:19:58;;;;;;;2.67;2.43;;;11.90;99.90;;;;;;6148659;23;20195;-87
2021/12/14 12:22:24;;;;;;;6.33;3.37;;;11.90;99.90;;;;;;6150057;23;20152;-83
2021/12/14 12:24:54;;;;;;;3.90;2.63;;;11.90;99.90;;;;;;6149063;23;20156;-87
2021/12/14 12:27:25;;;;;;;6.57;2.97;;;12.00;99.90;;;;;;6173207;23;20720;-87
2021/12/14 12:30:33;;;;;;;4.17;3.00;;;12.00;99.90;;;;;;6166143;23;20194;-86
2021/12/14 12:33:40;;;;;;;6.50;3.13;;;12.00;99.90;;;;;;6156637;23;20195;-86
2021/12/14 12:36:17;;;;;;;9.20;3.13;;;11.90;99.90;;;;;;6170110;23;20207;-86
2021/12/14 12:38:45;;;;;;;6.87;3.70;;;12.00;99.90;;;;;;6148241;23;20255;-86
2021/12/14 12:41:18;;;;;;;8.37;2.83;;;12.00;99.90;;;;;;6148732;23;20275;-86
2021/12/14 12:43:52;;;;;;;4.20;3.33;;;12.00;99.90;;;;;;6147696;23;20195;-85
2021/12/14 12:46:47;;;;;;;5.17;2.77;;;12.00;99.90;;;;;;6148924;23;20186;-86
2021/12/14 12:49:28;;;;;;;8.13;3.40;;;12.10;99.90;;;;;;6179381;23;20234;-87
2021/12/14 12:52:07;;;;;;;3.67;3.17;;;12.10;99.90;;;;;;6147953;23;20611;-86
2021/12/14 12:54:50;;;;;;;7.63;3.20;;;12.00;99.90;;;;;;6146586;23;20217;-88
2021/12/14 12:57:29;;;;;;;8.63;3.83;;;12.10;99.90;;;;;;6149381;23;20227;-89
2021/12/14 13:00:01;;;;;;;8.40;3.67;;;12.10;99.90;;;;;;6168537;23;20305;-88
2021/12/14 13:02:31;;;;;;;11.67;3.83;;;12.10;99.90;;;;;;6178691;23;20191;-88
2021/12/14 13:05:09;;;;;;;5.50;2.43;;;12.10;99.90;;;;;;6179038;23;20630;-88
2021/12/14 13:07:49;;;;;;;3.83;3.00;;;12.10;99.90;;;;;;6179175;23;20205;-89
2021/12/14 13:10:29;;;;;;;6.53;3.60;;;12.10;99.90;;;;;;6180229;23;20153;-88
2021/12/14 13:13:05;;;;;;;8.33;3.33;;;12.10;99.90;;;;;;6182595;23;20161;-86
2021/12/14 13:15:31;;;;;;;3.47;2.77;;;12.20;99.90;;;;;;6180659;23;20280;-86
2021/12/14 13:18:22;;;;;;;6.37;3.47;;;12.10;99.90;;;;;;6178654;23;20221;-88
2021/12/14 13:20:51;;;;;;;10.33;3.40;;;12.10;99.90;;;;;;6176691;23;20626;-88
2021/12/14 13:23:22;;;;;;;14.90;3.53;;;12.20;99.90;;;;;;6182205;23;20190;-89
2021/12/14 13:25:49;;;;;;;10.73;2.93;;;12.10;99.90;;;;;;6187987;23;20195;-87
2021/12/14 13:28:15;;;;;;;14.80;3.57;;;12.20;99.90;;;;;;6225005;23;20159;-90
2021/12/14 13:30:43;;;;;;;7.33;4.13;;;12.10;99.90;;;;;;6182057;23;20217;-88
2021/12/14 13:33:29;;;;;;;7.53;3.27;;;12.10;99.90;;;;;;6178571;23;20198;-90
2021/12/14 13:35:55;;;;;;;5.27;3.00;;;12.10;99.90;;;;;;6178122;23;20202;-91
2021/12/14 13:38:21;;;;;;;6.90;4.47;;;12.10;99.90;;;;;;6176891;23;20198;-93
2021/12/14 13:40:48;;;;;;;5.87;3.17;;;12.20;99.90;;;;;;6176386;23;20193;-94
2021/12/14 13:43:17;;;;;;;9.90;3.10;;;12.20;99.90;;;;;;6179015;23;20155;-92
2021/12/14 13:45:56;;;;;;;3.80;2.37;;;12.20;99.90;;;;;;6179927;23;20208;-94